sensor_id;sensor_type;location;lat;lon;timestamp;temperature;humidity
44579;DHT22;37422;51.402;0.016;2022-12-18T00:01:59;0.20;99.90
44579;DHT22;37422;51.402;0.016;2022-12-18T00:04:29;0.20;99.90
44579;DHT22;37422;51.402;0.016;2022-12-18T00:07:00;0.20;99.90
44579;DHT22;37422;51.402;0.016;2022-12-18T00:09:30;0.10;99.90
44579;DHT22;37422;51.402;0.016;2022-12-18T00:12:10;0.10;99.90
44579;DHT22;37422;51.402;0.016;2022-12-18T00:14:49;0.00;99.90
44579;DHT22;37422;51.402;0.016;2022-12-18T00:17:17;0.00;99.90
44579;DHT22;37422;51.402;0.016;2022-12-18T00:19:49;0.00;99.90
44579;DHT22;37422;51.402;0.016;2022-12-18T00:22:19;0.00;99.90
44579;DHT22;37422;51.402;0.016;2022-12-18T00:24:46;0.20;99.90
44579;DHT22;37422;51.402;0.016;2022-12-18T00:27:24;0.00;99.90
44579;DHT22;37422;51.402;0.016;2022-12-18T00:29:57;0.10;99.90
44579;DHT22;37422;51.402;0.016;2022-12-18T00:32:26;0.10;99.90
44579;DHT22;37422;51.402;0.016;2022-12-18T00:34:59;0.10;99.90
44579;DHT22;37422;51.402;0.016;2022-12-18T00:37:29;0.10;99.90
44579;DHT22;37422;51.402;0.016;2022-12-18T00:40:01;0.10;99.90
44579;DHT22;37422;51.402;0.016;2022-12-18T00:42:37;0.70;99.90
44579;DHT22;37422;51.402;0.016;2022-12-18T00:45:42;0.30;99.90
44579;DHT22;37422;51.402;0.016;2022-12-18T00:48:12;0.10;99.90
44579;DHT22;37422;51.402;0.016;2022-12-18T00:50:43;0.10;99.90
44579;DHT22;37422;51.402;0.016;2022-12-18T00:53:23;0.10;99.90
44579;DHT22;37422;51.402;0.016;2022-12-18T00:55:51;0.10;99.90
44579;DHT22;37422;51.402;0.016;2022-12-18T00:58:19;0.10;99.90
44579;DHT22;37422;51.402;0.016;2022-12-18T01:00:50;0.10;99.90
44579;DHT22;37422;51.402;0.016;2022-12-18T01:03:19;0.10;99.90
44579;DHT22;37422;51.402;0.016;2022-12-18T01:06:04;0.10;99.90
44579;DHT22;37422;51.402;0.016;2022-12-18T01:08:33;0.10;99.90
44579;DHT22;37422;51.402;0.016;2022-12-18T01:11:12;0.10;99.90
44579;DHT22;37422;51.402;0.016;2022-12-18T01:13:45;0.10;99.90
44579;DHT22;37422;51.402;0.016;2022-12-18T01:16:14;0.10;99.90
44579;DHT22;37422;51.402;0.016;2022-12-18T01:18:49;0.10;99.90
44579;DHT22;37422;51.402;0.016;2022-12-18T01:21:19;0.10;99.90
44579;DHT22;37422;51.402;0.016;2022-12-18T01:23:51;0.10;99.90
44579;DHT22;37422;51.402;0.016;2022-12-18T01:26:20;0.10;99.90
44579;DHT22;37422;51.402;0.016;2022-12-18T01:28:51;0.00;99.90
44579;DHT22;37422;51.402;0.016;2022-12-18T01:31:23;0.00;99.90
44579;DHT22;37422;51.402;0.016;2022-12-18T01:34:00;-0.10;99.90
44579;DHT22;37422;51.402;0.016;2022-12-18T01:36:37;-0.20;99.90
44579;DHT22;37422;51.402;0.016;2022-12-18T01:39:08;-0.30;99.90
44579;DHT22;37422;51.402;0.016;2022-12-18T01:41:42;-0.40;99.90
44579;DHT22;37422;51.402;0.016;2022-12-18T01:50:16;-0.70;99.90
44579;DHT22;37422;51.402;0.016;2022-12-18T01:52:55;-0.70;99.90
44579;DHT22;37422;51.402;0.016;2022-12-18T01:55:31;-0.80;99.90
44579;DHT22;37422;51.402;0.016;2022-12-18T01:58:08;-0.90;99.90
44579;DHT22;37422;51.402;0.016;2022-12-18T02:00:36;-0.20;99.90
44579;DHT22;37422;51.402;0.016;2022-12-18T02:03:04;-1.00;99.90
44579;DHT22;37422;51.402;0.016;2022-12-18T02:08:57;-1.00;99.90
44579;DHT22;37422;51.402;0.016;2022-12-18T02:14:38;-1.00;99.90
44579;DHT22;37422;51.402;0.016;2022-12-18T02:17:20;-0.90;99.90
44579;DHT22;37422;51.402;0.016;2022-12-18T02:20:14;-0.90;99.90
44579;DHT22;37422;51.402;0.016;2022-12-18T02:26:27;-0.90;99.90
44579;DHT22;37422;51.402;0.016;2022-12-18T02:29:06;-0.90;99.90
44579;DHT22;37422;51.402;0.016;2022-12-18T02:31:47;-0.80;99.90
44579;DHT22;37422;51.402;0.016;2022-12-18T02:34:18;-0.80;99.90
44579;DHT22;37422;51.402;0.016;2022-12-18T02:36:53;-0.80;99.90
44579;DHT22;37422;51.402;0.016;2022-12-18T02:39:25;-0.80;99.90
44579;DHT22;37422;51.402;0.016;2022-12-18T02:42:03;-0.60;99.90
44579;DHT22;37422;51.402;0.016;2022-12-18T02:44:45;-0.70;99.90
44579;DHT22;37422;51.402;0.016;2022-12-18T02:47:24;-0.70;99.90
44579;DHT22;37422;51.402;0.016;2022-12-18T02:50:30;-0.60;99.90
44579;DHT22;37422;51.402;0.016;2022-12-18T02:53:47;-0.70;99.90
44579;DHT22;37422;51.402;0.016;2022-12-18T02:56:11;-0.80;99.90
44579;DHT22;37422;51.402;0.016;2022-12-18T02:59:13;-0.80;99.90
44579;DHT22;37422;51.402;0.016;2022-12-18T03:01:51;-0.90;99.90
44579;DHT22;37422;51.402;0.016;2022-12-18T03:04:29;-1.00;99.90
44579;DHT22;37422;51.402;0.016;2022-12-18T03:07:11;-1.00;99.90
44579;DHT22;37422;51.402;0.016;2022-12-18T03:09:46;-1.10;99.90
44579;DHT22;37422;51.402;0.016;2022-12-18T03:12:28;-1.00;99.90
44579;DHT22;37422;51.402;0.016;2022-12-18T03:17:41;-1.00;99.90
44579;DHT22;37422;51.402;0.016;2022-12-18T03:20:15;-0.90;99.90
44579;DHT22;37422;51.402;0.016;2022-12-18T03:22:51;-0.90;99.90
44579;DHT22;37422;51.402;0.016;2022-12-18T03:25:25;-0.80;99.90
44579;DHT22;37422;51.402;0.016;2022-12-18T03:28:00;-0.80;99.90
44579;DHT22;37422;51.402;0.016;2022-12-18T03:30:30;-0.70;99.90
44579;DHT22;37422;51.402;0.016;2022-12-18T03:36:14;-0.50;99.90
44579;DHT22;37422;51.402;0.016;2022-12-18T03:38:42;-0.50;99.90
44579;DHT22;37422;51.402;0.016;2022-12-18T03:41:23;-0.40;99.90
44579;DHT22;37422;51.402;0.016;2022-12-18T03:48:02;-0.40;99.90
44579;DHT22;37422;51.402;0.016;2022-12-18T03:50:57;-0.40;99.90
44579;DHT22;37422;51.402;0.016;2022-12-18T03:56:25;-0.30;99.90
44579;DHT22;37422;51.402;0.016;2022-12-18T03:58:56;-0.30;99.90
44579;DHT22;37422;51.402;0.016;2022-12-18T04:01:37;-0.30;99.90
44579;DHT22;37422;51.402;0.016;2022-12-18T04:04:20;-0.30;99.90
44579;DHT22;37422;51.402;0.016;2022-12-18T04:06:53;-0.30;99.90
44579;DHT22;37422;51.402;0.016;2022-12-18T04:09:23;-0.20;99.90
44579;DHT22;37422;51.402;0.016;2022-12-18T04:11:53;-0.30;99.90
44579;DHT22;37422;51.402;0.016;2022-12-18T04:14:23;-0.20;99.90
44579;DHT22;37422;51.402;0.016;2022-12-18T04:17:08;-0.20;99.90
44579;DHT22;37422;51.402;0.016;2022-12-18T04:19:44;-0.20;99.90
44579;DHT22;37422;51.402;0.016;2022-12-18T04:22:22;-0.20;99.90
44579;DHT22;37422;51.402;0.016;2022-12-18T04:25:07;-0.20;99.90
44579;DHT22;37422;51.402;0.016;2022-12-18T04:27:40;-0.20;99.90
44579;DHT22;37422;51.402;0.016;2022-12-18T04:30:12;-0.10;99.90
44579;DHT22;37422;51.402;0.016;2022-12-18T04:32:41;-0.10;99.90
44579;DHT22;37422;51.402;0.016;2022-12-18T04:35:15;-0.10;99.90
44579;DHT22;37422;51.402;0.016;2022-12-18T04:37:47;0.00;99.90
44579;DHT22;37422;51.402;0.016;2022-12-18T04:40:17;0.00;99.90
44579;DHT22;37422;51.402;0.016;2022-12-18T04:42:47;0.10;99.90
44579;DHT22;37422;51.402;0.016;2022-12-18T04:45:18;0.10;99.90
44579;DHT22;37422;51.402;0.016;2022-12-18T04:47:46;0.20;99.90
44579;DHT22;37422;51.402;0.016;2022-12-18T04:50:14;0.30;99.90
44579;DHT22;37422;51.402;0.016;2022-12-18T04:52:45;0.20;99.90
44579;DHT22;37422;51.402;0.016;2022-12-18T04:55:13;0.30;99.90
44579;DHT22;37422;51.402;0.016;2022-12-18T04:57:41;0.30;99.90
44579;DHT22;37422;51.402;0.016;2022-12-18T05:00:13;0.30;99.90
44579;DHT22;37422;51.402;0.016;2022-12-18T05:02:41;0.30;99.90
44579;DHT22;37422;51.402;0.016;2022-12-18T05:05:12;0.40;99.90
44579;DHT22;37422;51.402;0.016;2022-12-18T05:07:41;0.40;99.90
44579;DHT22;37422;51.402;0.016;2022-12-18T05:10:15;0.50;99.90
44579;DHT22;37422;51.402;0.016;2022-12-18T05:12:46;0.50;99.90
44579;DHT22;37422;51.402;0.016;2022-12-18T05:15:31;0.50;99.90
44579;DHT22;37422;51.402;0.016;2022-12-18T05:18:04;0.50;99.90
44579;DHT22;37422;51.402;0.016;2022-12-18T05:20:32;0.60;99.90
44579;DHT22;37422;51.402;0.016;2022-12-18T05:23:03;0.60;99.90
44579;DHT22;37422;51.402;0.016;2022-12-18T05:25:32;0.60;99.90
44579;DHT22;37422;51.402;0.016;2022-12-18T05:28:04;0.70;99.90
44579;DHT22;37422;51.402;0.016;2022-12-18T05:30:33;0.70;99.90
44579;DHT22;37422;51.402;0.016;2022-12-18T05:33:05;0.70;99.90
44579;DHT22;37422;51.402;0.016;2022-12-18T05:35:34;0.70;99.90
44579;DHT22;37422;51.402;0.016;2022-12-18T05:38:02;0.80;99.90
44579;DHT22;37422;51.402;0.016;2022-12-18T05:40:30;0.80;99.90
44579;DHT22;37422;51.402;0.016;2022-12-18T05:42:59;0.80;99.90
44579;DHT22;37422;51.402;0.016;2022-12-18T05:45:32;0.80;99.90
44579;DHT22;37422;51.402;0.016;2022-12-18T05:48:08;0.90;99.90
44579;DHT22;37422;51.402;0.016;2022-12-18T05:50:39;0.90;99.90
44579;DHT22;37422;51.402;0.016;2022-12-18T05:53:28;0.90;99.90
44579;DHT22;37422;51.402;0.016;2022-12-18T05:56:06;0.90;99.90
44579;DHT22;37422;51.402;0.016;2022-12-18T05:58:38;0.90;99.90
44579;DHT22;37422;51.402;0.016;2022-12-18T06:01:34;0.90;99.90
44579;DHT22;37422;51.402;0.016;2022-12-18T06:04:03;1.00;99.90
44579;DHT22;37422;51.402;0.016;2022-12-18T06:06:37;1.00;99.90
44579;DHT22;37422;51.402;0.016;2022-12-18T06:09:05;1.00;99.90
44579;DHT22;37422;51.402;0.016;2022-12-18T06:11:36;1.00;99.90
44579;DHT22;37422;51.402;0.016;2022-12-18T06:14:15;1.00;99.90
44579;DHT22;37422;51.402;0.016;2022-12-18T06:16:47;1.10;99.90
44579;DHT22;37422;51.402;0.016;2022-12-18T06:19:17;1.10;99.90
44579;DHT22;37422;51.402;0.016;2022-12-18T06:21:49;1.10;99.90
44579;DHT22;37422;51.402;0.016;2022-12-18T06:24:31;1.10;99.90
44579;DHT22;37422;51.402;0.016;2022-12-18T06:27:00;1.10;99.90
44579;DHT22;37422;51.402;0.016;2022-12-18T06:29:29;1.30;99.90
44579;DHT22;37422;51.402;0.016;2022-12-18T06:32:07;1.10;99.90
44579;DHT22;37422;51.402;0.016;2022-12-18T06:34:39;1.20;99.90
44579;DHT22;37422;51.402;0.016;2022-12-18T06:37:07;1.70;99.90
44579;DHT22;37422;51.402;0.016;2022-12-18T06:39:34;1.20;99.90
44579;DHT22;37422;51.402;0.016;2022-12-18T06:42:06;1.20;99.90
44579;DHT22;37422;51.402;0.016;2022-12-18T06:44:35;1.20;99.90
44579;DHT22;37422;51.402;0.016;2022-12-18T06:47:08;1.20;99.90
44579;DHT22;37422;51.402;0.016;2022-12-18T06:49:40;1.20;99.90
44579;DHT22;37422;51.402;0.016;2022-12-18T06:52:08;1.20;99.90
44579;DHT22;37422;51.402;0.016;2022-12-18T06:54:37;1.20;99.90
44579;DHT22;37422;51.402;0.016;2022-12-18T06:57:10;1.20;99.90
44579;DHT22;37422;51.402;0.016;2022-12-18T06:59:48;1.20;99.90
44579;DHT22;37422;51.402;0.016;2022-12-18T07:02:17;1.30;99.90
44579;DHT22;37422;51.402;0.016;2022-12-18T07:04:48;1.30;99.90
44579;DHT22;37422;51.402;0.016;2022-12-18T07:07:24;1.50;99.90
44579;DHT22;37422;51.402;0.016;2022-12-18T07:09:55;1.40;99.90
44579;DHT22;37422;51.402;0.016;2022-12-18T07:12:24;1.40;99.90
44579;DHT22;37422;51.402;0.016;2022-12-18T07:14:55;1.40;99.90
44579;DHT22;37422;51.402;0.016;2022-12-18T07:17:24;1.40;99.90
44579;DHT22;37422;51.402;0.016;2022-12-18T07:19:55;1.40;99.90
44579;DHT22;37422;51.402;0.016;2022-12-18T07:22:25;1.40;99.90
44579;DHT22;37422;51.402;0.016;2022-12-18T07:24:57;1.40;99.90
44579;DHT22;37422;51.402;0.016;2022-12-18T07:27:32;1.50;99.90
44579;DHT22;37422;51.402;0.016;2022-12-18T07:30:09;1.50;99.90
44579;DHT22;37422;51.402;0.016;2022-12-18T07:32:40;1.50;99.90
44579;DHT22;37422;51.402;0.016;2022-12-18T07:35:18;1.50;99.90
44579;DHT22;37422;51.402;0.016;2022-12-18T07:37:52;1.60;99.90
44579;DHT22;37422;51.402;0.016;2022-12-18T07:40:23;1.60;99.90
44579;DHT22;37422;51.402;0.016;2022-12-18T07:42:57;1.60;99.90
44579;DHT22;37422;51.402;0.016;2022-12-18T07:45:27;1.60;99.90
44579;DHT22;37422;51.402;0.016;2022-12-18T07:48:04;1.60;99.90
44579;DHT22;37422;51.402;0.016;2022-12-18T07:50:38;1.60;99.90
44579;DHT22;37422;51.402;0.016;2022-12-18T07:53:08;1.60;99.90
44579;DHT22;37422;51.402;0.016;2022-12-18T07:55:36;1.60;99.90
44579;DHT22;37422;51.402;0.016;2022-12-18T07:58:33;1.60;99.90
44579;DHT22;37422;51.402;0.016;2022-12-18T08:01:19;1.60;99.90
44579;DHT22;37422;51.402;0.016;2022-12-18T08:03:48;1.60;99.90
44579;DHT22;37422;51.402;0.016;2022-12-18T08:06:25;1.60;99.90
44579;DHT22;37422;51.402;0.016;2022-12-18T08:08:55;1.60;99.90
44579;DHT22;37422;51.402;0.016;2022-12-18T08:11:25;1.60;99.90
44579;DHT22;37422;51.402;0.016;2022-12-18T08:14:11;1.60;99.90
44579;DHT22;37422;51.402;0.016;2022-12-18T08:16:46;1.60;99.90
44579;DHT22;37422;51.402;0.016;2022-12-18T08:19:20;1.40;99.90
44579;DHT22;37422;51.402;0.016;2022-12-18T08:21:58;1.70;99.90
44579;DHT22;37422;51.402;0.016;2022-12-18T08:24:32;1.60;99.90
44579;DHT22;37422;51.402;0.016;2022-12-18T08:27:00;1.70;99.90
44579;DHT22;37422;51.402;0.016;2022-12-18T08:29:49;1.70;99.90
44579;DHT22;37422;51.402;0.016;2022-12-18T08:32:17;1.80;99.90
44579;DHT22;37422;51.402;0.016;2022-12-18T08:34:45;1.80;99.90
44579;DHT22;37422;51.402;0.016;2022-12-18T08:37:13;1.80;99.90
44579;DHT22;37422;51.402;0.016;2022-12-18T08:39:45;1.80;99.90
44579;DHT22;37422;51.402;0.016;2022-12-18T08:42:13;1.90;99.90
44579;DHT22;37422;51.402;0.016;2022-12-18T08:45:07;1.90;99.90
44579;DHT22;37422;51.402;0.016;2022-12-18T08:47:36;1.90;99.90
44579;DHT22;37422;51.402;0.016;2022-12-18T08:50:14;1.90;99.90
44579;DHT22;37422;51.402;0.016;2022-12-18T08:52:43;2.00;99.90
44579;DHT22;37422;51.402;0.016;2022-12-18T08:55:11;2.00;99.90
44579;DHT22;37422;51.402;0.016;2022-12-18T08:57:39;2.00;99.90
44579;DHT22;37422;51.402;0.016;2022-12-18T09:00:10;2.00;99.90
44579;DHT22;37422;51.402;0.016;2022-12-18T09:02:41;2.00;99.90
44579;DHT22;37422;51.402;0.016;2022-12-18T09:05:16;2.10;99.90
44579;DHT22;37422;51.402;0.016;2022-12-18T09:07:47;2.10;99.90
44579;DHT22;37422;51.402;0.016;2022-12-18T09:13:47;2.20;99.90
44579;DHT22;37422;51.402;0.016;2022-12-18T09:16:19;2.20;99.90
44579;DHT22;37422;51.402;0.016;2022-12-18T09:19:04;2.20;99.90
44579;DHT22;37422;51.402;0.016;2022-12-18T09:21:40;2.30;99.90
44579;DHT22;37422;51.402;0.016;2022-12-18T09:24:39;2.30;99.90
44579;DHT22;37422;51.402;0.016;2022-12-18T09:27:07;2.20;99.90
44579;DHT22;37422;51.402;0.016;2022-12-18T09:29:36;2.60;99.90
44579;DHT22;37422;51.402;0.016;2022-12-18T09:32:07;2.30;99.90
44579;DHT22;37422;51.402;0.016;2022-12-18T09:34:35;2.30;99.90
44579;DHT22;37422;51.402;0.016;2022-12-18T09:37:06;2.30;99.90
44579;DHT22;37422;51.402;0.016;2022-12-18T09:39:39;1.90;99.90
44579;DHT22;37422;51.402;0.016;2022-12-18T09:42:19;2.10;99.90
44579;DHT22;37422;51.402;0.016;2022-12-18T09:44:56;2.40;99.90
44579;DHT22;37422;51.402;0.016;2022-12-18T09:47:37;2.50;99.90
44579;DHT22;37422;51.402;0.016;2022-12-18T09:50:15;2.60;99.90
44579;DHT22;37422;51.402;0.016;2022-12-18T09:52:48;2.80;99.90
44579;DHT22;37422;51.402;0.016;2022-12-18T09:55:33;2.90;99.90
44579;DHT22;37422;51.402;0.016;2022-12-18T09:58:12;2.90;99.90
44579;DHT22;37422;51.402;0.016;2022-12-18T10:00:41;2.90;99.90
44579;DHT22;37422;51.402;0.016;2022-12-18T10:03:12;2.90;99.90
44579;DHT22;37422;51.402;0.016;2022-12-18T10:11:34;3.00;99.90
44579;DHT22;37422;51.402;0.016;2022-12-18T10:20:01;3.00;99.90
44579;DHT22;37422;51.402;0.016;2022-12-18T10:28:07;2.90;99.90
44579;DHT22;37422;51.402;0.016;2022-12-18T10:30:36;3.00;99.90
44579;DHT22;37422;51.402;0.016;2022-12-18T10:33:14;3.00;99.90
44579;DHT22;37422;51.402;0.016;2022-12-18T10:35:44;3.00;99.90
44579;DHT22;37422;51.402;0.016;2022-12-18T10:38:27;3.00;99.90
44579;DHT22;37422;51.402;0.016;2022-12-18T10:43:28;3.10;99.90
44579;DHT22;37422;51.402;0.016;2022-12-18T10:46:20;3.20;99.90
44579;DHT22;37422;51.402;0.016;2022-12-18T10:48:55;3.50;99.90
44579;DHT22;37422;51.402;0.016;2022-12-18T10:51:31;3.70;99.90
44579;DHT22;37422;51.402;0.016;2022-12-18T10:54:12;3.80;99.90
44579;DHT22;37422;51.402;0.016;2022-12-18T10:56:41;3.90;99.90
44579;DHT22;37422;51.402;0.016;2022-12-18T10:59:14;3.90;99.90
44579;DHT22;37422;51.402;0.016;2022-12-18T11:04:22;3.90;99.90
44579;DHT22;37422;51.402;0.016;2022-12-18T11:07:04;3.80;99.90
44579;DHT22;37422;51.402;0.016;2022-12-18T11:09:38;3.80;99.90
44579;DHT22;37422;51.402;0.016;2022-12-18T11:20:31;3.60;99.90
44579;DHT22;37422;51.402;0.016;2022-12-18T11:23:04;3.50;99.90
44579;DHT22;37422;51.402;0.016;2022-12-18T11:25:35;3.50;99.90
44579;DHT22;37422;51.402;0.016;2022-12-18T11:28:25;3.50;99.90
44579;DHT22;37422;51.402;0.016;2022-12-18T11:33:46;3.50;99.90
44579;DHT22;37422;51.402;0.016;2022-12-18T11:36:39;3.40;99.90
44579;DHT22;37422;51.402;0.016;2022-12-18T11:49:45;3.40;99.90
44579;DHT22;37422;51.402;0.016;2022-12-18T11:52:19;3.40;99.90
44579;DHT22;37422;51.402;0.016;2022-12-18T11:54:52;3.40;99.90
44579;DHT22;37422;51.402;0.016;2022-12-18T11:57:43;3.30;99.90
44579;DHT22;37422;51.402;0.016;2022-12-18T12:00:23;3.30;99.90
44579;DHT22;37422;51.402;0.016;2022-12-18T12:06:03;3.30;99.90
44579;DHT22;37422;51.402;0.016;2022-12-18T12:11:44;3.20;99.90
44579;DHT22;37422;51.402;0.016;2022-12-18T12:26:09;3.20;99.90
44579;DHT22;37422;51.402;0.016;2022-12-18T12:40:47;3.10;99.90
44579;DHT22;37422;51.402;0.016;2022-12-18T12:43:46;3.10;99.90
44579;DHT22;37422;51.402;0.016;2022-12-18T12:46:21;3.10;99.90
44579;DHT22;37422;51.402;0.016;2022-12-18T12:49:12;3.10;99.90
44579;DHT22;37422;51.402;0.016;2022-12-18T12:51:44;3.10;99.90
44579;DHT22;37422;51.402;0.016;2022-12-18T12:54:20;3.10;99.90
44579;DHT22;37422;51.402;0.016;2022-12-18T13:05:48;3.10;99.90
44579;DHT22;37422;51.402;0.016;2022-12-18T13:08:34;3.10;99.90
44579;DHT22;37422;51.402;0.016;2022-12-18T13:11:29;3.10;99.90
44579;DHT22;37422;51.402;0.016;2022-12-18T13:14:30;3.10;99.90
44579;DHT22;37422;51.402;0.016;2022-12-18T13:20:08;3.10;99.90
44579;DHT22;37422;51.402;0.016;2022-12-18T13:22:41;3.10;99.90
44579;DHT22;37422;51.402;0.016;2022-12-18T13:25:32;3.00;99.90
44579;DHT22;37422;51.402;0.016;2022-12-18T13:44:47;2.50;99.90
44579;DHT22;37422;51.402;0.016;2022-12-18T13:48:24;3.00;99.90
44579;DHT22;37422;51.402;0.016;2022-12-18T13:51:11;3.20;99.90
44579;DHT22;37422;51.402;0.016;2022-12-18T14:02:24;3.10;99.90
44579;DHT22;37422;51.402;0.016;2022-12-18T14:11:25;3.10;99.90
44579;DHT22;37422;51.402;0.016;2022-12-18T14:14:50;3.10;99.90
44579;DHT22;37422;51.402;0.016;2022-12-18T14:18:48;3.10;99.90
44579;DHT22;37422;51.402;0.016;2022-12-18T14:25:14;3.10;99.90
44579;DHT22;37422;51.402;0.016;2022-12-18T14:32:20;3.20;99.90
44579;DHT22;37422;51.402;0.016;2022-12-18T14:36:05;3.20;99.90
44579;DHT22;37422;51.402;0.016;2022-12-18T14:39:19;3.20;99.90
44579;DHT22;37422;51.402;0.016;2022-12-18T14:42:04;3.20;99.90
44579;DHT22;37422;51.402;0.016;2022-12-18T14:45:38;3.30;99.90
44579;DHT22;37422;51.402;0.016;2022-12-18T14:48:38;3.30;99.90
44579;DHT22;37422;51.402;0.016;2022-12-18T14:51:33;3.30;99.90
44579;DHT22;37422;51.402;0.016;2022-12-18T14:54:17;3.30;99.90
44579;DHT22;37422;51.402;0.016;2022-12-18T14:57:46;3.30;99.90
44579;DHT22;37422;51.402;0.016;2022-12-18T15:01:21;3.30;99.90
44579;DHT22;37422;51.402;0.016;2022-12-18T15:04:58;3.40;99.90
44579;DHT22;37422;51.402;0.016;2022-12-18T15:11:48;3.50;99.90
44579;DHT22;37422;51.402;0.016;2022-12-18T15:14:40;3.50;99.90
44579;DHT22;37422;51.402;0.016;2022-12-18T15:17:26;3.50;99.90
44579;DHT22;37422;51.402;0.016;2022-12-18T15:20:47;3.60;99.90
44579;DHT22;37422;51.402;0.016;2022-12-18T15:26:10;3.60;99.90
44579;DHT22;37422;51.402;0.016;2022-12-18T15:29:22;3.70;99.90
44579;DHT22;37422;51.402;0.016;2022-12-18T15:32:02;3.70;99.90
44579;DHT22;37422;51.402;0.016;2022-12-18T15:34:39;3.70;99.90
44579;DHT22;37422;51.402;0.016;2022-12-18T15:37:11;3.80;99.90
44579;DHT22;37422;51.402;0.016;2022-12-18T15:39:39;3.80;99.90
44579;DHT22;37422;51.402;0.016;2022-12-18T15:42:18;3.80;99.90
44579;DHT22;37422;51.402;0.016;2022-12-18T15:45:15;3.90;99.90
44579;DHT22;37422;51.402;0.016;2022-12-18T15:48:24;3.90;99.90
44579;DHT22;37422;51.402;0.016;2022-12-18T15:51:16;4.00;99.90
44579;DHT22;37422;51.402;0.016;2022-12-18T15:54:32;4.00;99.90
44579;DHT22;37422;51.402;0.016;2022-12-18T15:57:51;4.00;99.90
44579;DHT22;37422;51.402;0.016;2022-12-18T16:00:58;4.10;99.90
44579;DHT22;37422;51.402;0.016;2022-12-18T16:04:21;4.20;99.90
44579;DHT22;37422;51.402;0.016;2022-12-18T16:07:07;4.20;99.90
44579;DHT22;37422;51.402;0.016;2022-12-18T16:09:52;4.30;99.90
44579;DHT22;37422;51.402;0.016;2022-12-18T16:12:34;4.40;99.90
44579;DHT22;37422;51.402;0.016;2022-12-18T16:15:44;4.40;99.90
44579;DHT22;37422;51.402;0.016;2022-12-18T16:19:22;4.50;99.90
44579;DHT22;37422;51.402;0.016;2022-12-18T16:23:05;4.50;99.90
44579;DHT22;37422;51.402;0.016;2022-12-18T16:35:18;4.80;99.90
44579;DHT22;37422;51.402;0.016;2022-12-18T16:38:37;4.90;99.90
44579;DHT22;37422;51.402;0.016;2022-12-18T16:46:37;5.50;99.90
44579;DHT22;37422;51.402;0.016;2022-12-18T16:55:25;5.20;99.90
44579;DHT22;37422;51.402;0.016;2022-12-18T17:13:19;5.50;99.90
44579;DHT22;37422;51.402;0.016;2022-12-18T17:17:06;5.50;99.90
44579;DHT22;37422;51.402;0.016;2022-12-18T17:25:40;5.70;99.90
44579;DHT22;37422;51.402;0.016;2022-12-18T17:43:19;6.00;99.90
44579;DHT22;37422;51.402;0.016;2022-12-18T17:46:46;6.00;99.90
44579;DHT22;37422;51.402;0.016;2022-12-18T17:50:05;6.10;99.90
44579;DHT22;37422;51.402;0.016;2022-12-18T17:52:48;6.10;99.90
44579;DHT22;37422;51.402;0.016;2022-12-18T17:55:55;6.10;99.90
44579;DHT22;37422;51.402;0.016;2022-12-18T17:59:05;6.30;99.90
44579;DHT22;37422;51.402;0.016;2022-12-18T18:01:43;6.10;99.90
44579;DHT22;37422;51.402;0.016;2022-12-18T18:28:07;6.30;99.90
44579;DHT22;37422;51.402;0.016;2022-12-18T18:41:39;6.40;99.90
44579;DHT22;37422;51.402;0.016;2022-12-18T18:49:23;6.40;99.90
44579;DHT22;37422;51.402;0.016;2022-12-18T18:53:41;6.50;99.90
44579;DHT22;37422;51.402;0.016;2022-12-18T18:56:52;6.60;99.90
44579;DHT22;37422;51.402;0.016;2022-12-18T18:59:55;6.60;99.90
44579;DHT22;37422;51.402;0.016;2022-12-18T19:03:19;6.60;99.90
44579;DHT22;37422;51.402;0.016;2022-12-18T19:06:26;6.60;99.90
44579;DHT22;37422;51.402;0.016;2022-12-18T19:14:16;6.60;99.90
44579;DHT22;37422;51.402;0.016;2022-12-18T19:16:47;6.70;99.90
44579;DHT22;37422;51.402;0.016;2022-12-18T19:19:51;6.70;99.90
44579;DHT22;37422;51.402;0.016;2022-12-18T19:23:21;6.80;99.90
44579;DHT22;37422;51.402;0.016;2022-12-18T19:26:26;6.70;99.90
44579;DHT22;37422;51.402;0.016;2022-12-18T19:34:30;6.70;99.90
44579;DHT22;37422;51.402;0.016;2022-12-18T19:37:08;6.70;99.90
44579;DHT22;37422;51.402;0.016;2022-12-18T19:39:38;6.80;99.90
44579;DHT22;37422;51.402;0.016;2022-12-18T19:42:12;6.80;99.90
44579;DHT22;37422;51.402;0.016;2022-12-18T19:44:47;6.80;99.90
44579;DHT22;37422;51.402;0.016;2022-12-18T19:47:39;6.90;99.90
44579;DHT22;37422;51.402;0.016;2022-12-18T19:50:22;6.90;99.90
44579;DHT22;37422;51.402;0.016;2022-12-18T19:52:51;6.90;99.90
44579;DHT22;37422;51.402;0.016;2022-12-18T19:55:24;7.00;99.90
44579;DHT22;37422;51.402;0.016;2022-12-18T19:58:01;7.00;99.90
44579;DHT22;37422;51.402;0.016;2022-12-18T20:00:29;7.00;99.90
44579;DHT22;37422;51.402;0.016;2022-12-18T20:02:57;7.00;99.90
44579;DHT22;37422;51.402;0.016;2022-12-18T20:05:42;7.00;99.90
44579;DHT22;37422;51.402;0.016;2022-12-18T20:08:09;7.10;99.90
44579;DHT22;37422;51.402;0.016;2022-12-18T20:10:38;7.10;99.90
44579;DHT22;37422;51.402;0.016;2022-12-18T20:13:33;7.20;99.90
44579;DHT22;37422;51.402;0.016;2022-12-18T20:16:02;7.20;99.90
44579;DHT22;37422;51.402;0.016;2022-12-18T20:18:33;7.20;99.90
44579;DHT22;37422;51.402;0.016;2022-12-18T20:21:02;7.30;99.90
44579;DHT22;37422;51.402;0.016;2022-12-18T20:23:30;7.30;99.90
44579;DHT22;37422;51.402;0.016;2022-12-18T20:26:03;7.40;99.90
44579;DHT22;37422;51.402;0.016;2022-12-18T20:28:33;7.40;99.90
44579;DHT22;37422;51.402;0.016;2022-12-18T20:31:03;7.50;99.90
44579;DHT22;37422;51.402;0.016;2022-12-18T20:33:35;7.50;99.90
44579;DHT22;37422;51.402;0.016;2022-12-18T20:36:17;7.50;99.90
44579;DHT22;37422;51.402;0.016;2022-12-18T20:38:49;7.60;99.90
44579;DHT22;37422;51.402;0.016;2022-12-18T20:41:24;7.70;99.90
44579;DHT22;37422;51.402;0.016;2022-12-18T20:43:57;7.70;99.90
44579;DHT22;37422;51.402;0.016;2022-12-18T20:46:25;7.70;99.90
44579;DHT22;37422;51.402;0.016;2022-12-18T20:48:59;7.80;99.90
44579;DHT22;37422;51.402;0.016;2022-12-18T20:51:42;7.70;99.90
44579;DHT22;37422;51.402;0.016;2022-12-18T20:54:13;7.90;99.90
44579;DHT22;37422;51.402;0.016;2022-12-18T20:56:41;7.90;99.90
44579;DHT22;37422;51.402;0.016;2022-12-18T20:59:10;8.00;99.90
44579;DHT22;37422;51.402;0.016;2022-12-18T21:01:49;8.00;99.90
44579;DHT22;37422;51.402;0.016;2022-12-18T21:04:27;8.00;99.90
44579;DHT22;37422;51.402;0.016;2022-12-18T21:07:03;8.10;99.90
44579;DHT22;37422;51.402;0.016;2022-12-18T21:09:31;8.10;99.90
44579;DHT22;37422;51.402;0.016;2022-12-18T21:12:12;8.10;99.90
44579;DHT22;37422;51.402;0.016;2022-12-18T21:15:17;8.10;99.90
44579;DHT22;37422;51.402;0.016;2022-12-18T21:17:53;8.10;99.90
44579;DHT22;37422;51.402;0.016;2022-12-18T21:20:25;8.10;99.90
44579;DHT22;37422;51.402;0.016;2022-12-18T21:22:54;8.20;99.90
44579;DHT22;37422;51.402;0.016;2022-12-18T21:25:43;8.20;99.90
44579;DHT22;37422;51.402;0.016;2022-12-18T21:28:13;8.20;99.90
44579;DHT22;37422;51.402;0.016;2022-12-18T21:30:48;8.20;99.90
44579;DHT22;37422;51.402;0.016;2022-12-18T21:33:22;8.20;99.90
44579;DHT22;37422;51.402;0.016;2022-12-18T21:36:11;8.20;99.90
44579;DHT22;37422;51.402;0.016;2022-12-18T21:38:39;8.20;99.90